Kandahar Airport
OAKN : now visible

Airfield :











YOU CAN JOIN US ON...

 
LOGIN :

Register | Disclaimer

   EN    FR    IT 

 









Legend :    VFR   Marginal VFR   IFR   Intensive IFR   Very Intensive IFR
Visi :
Ceiling :
>= 8 km
>= 3000ft
5 to 8 km
1000 to 3000 ft
1500m to 5 km
500 to 1000 ft
800 to 1500m
200 to 500 ft
< 800m
< 200 ft
Symbols :   Thunderstorms  Fog  Heavy snow  Heavy precipitations  Wind > 20 kt






- Airport Elevation : 3337 ft
- IATA code : KDH


OAKN - Kandahar

CURRENT METAR :
  • 200956Z VRB06KT 9999 CLR 33/M07 A2984 RMK AO2A SLP071 WND DATA ESTMD T03311075 $

EXPIRED METARs :
  • 200856Z 28010KT 9999 CLR 33/M07 A2987 RMK AO2A SLP034 WND DATA ESTMD T03251070 57023
  • 200756Z 29004KT 9999 CLR 32/M05 A2990 RMK AO2A SLP043 WND DATA ESTMD T03141055

TAF TAF OAKN
Valid from the 20 at 07:00 until the 21 at 13:00 UTC


200700Z 2007/2113 25006KT 9999 SKC QNH2988INS
BECMG 2007/2008 27012KT 9999 SKC QNH2982INS WND VRB06KT AFT 2013
BECMG 2107/2108 27010G15KT 9999 SKC QNH2980INS TX33/2011Z TN18/2101Z
OAKX FIR / Asia



MET'MAP, your aeronautical weather chart ! - Copyright ORBIFLY December 2007 - Disclaimer

ORBIFLY MET'MAP TEAM :

Programming & Development : Alexandra Zaïnal
Concept & original design : Baudouin d'Aumeries
Assistance for programming : Marc-Olivier Méhu
Technical & hardware support : Manuel Goepfert

Contact : metmap@orbifly.com




SOURCES & CREDITS :

   NOAA       Earth
Advisory